Time;durP1;ratioP1;P1;durP2;ratioP2;P2;SDS_P1;SDS_P2;PMS_P1;PMS_P2;Temp;Humidity;BMP_temperature;BMP_pressure;BME280_temperature;BME280_humidity;BME280_pressure;Samples;Min_cycle;Max_cycle;Signal;HPM_P1;HPM_P2
2022/08/27 00:01:47;;;;;;;1.10;1.10;;;18.40;99.90;;;;;;5033047;28;20606;-65
2022/08/27 00:04:13;;;;;;;0.80;0.80;;;18.40;99.90;;;;;;5033117;28;20623;-66
2022/08/27 00:06:39;;;;;;;0.77;0.70;;;18.40;99.90;;;;;;5033175;28;20666;-65
2022/08/27 00:09:05;;;;;;;2.63;2.10;;;18.40;99.90;;;;;;5033420;28;20537;-66
2022/08/27 00:11:31;;;;;;;1.37;1.27;;;18.40;99.90;;;;;;5033041;28;20562;-65
2022/08/27 00:13:57;;;;;;;1.83;1.73;;;18.40;99.90;;;;;;5033157;28;20405;-66
2022/08/27 00:16:23;;;;;;;1.67;1.53;;;18.40;99.90;;;;;;5033009;28;20406;-67
2022/08/27 00:18:48;;;;;;;1.80;1.60;;;18.50;99.90;;;;;;5033117;28;20196;-66
2022/08/27 00:21:16;;;;;;;0.90;0.90;;;18.50;99.90;;;;;;5033036;28;20916;-66
2022/08/27 00:23:41;;;;;;;0.73;0.73;;;18.50;99.90;;;;;;5033033;28;20178;-66
2022/08/27 00:26:09;;;;;;;0.80;0.80;;;18.40;99.90;;;;;;5032778;28;20448;-66
2022/08/27 00:28:35;;;;;;;1.27;1.17;;;18.40;99.90;;;;;;5033153;28;20255;-65
2022/08/27 00:31:01;;;;;;;2.10;2.00;;;18.40;99.90;;;;;;5032833;28;20808;-66
2022/08/27 00:33:27;;;;;;;2.00;1.80;;;18.40;99.90;;;;;;5032953;28;20917;-65
2022/08/27 00:35:53;;;;;;;1.03;0.90;;;18.50;99.90;;;;;;5032754;28;20648;-65
2022/08/27 00:38:20;;;;;;;1.10;1.10;;;18.40;99.90;;;;;;5032970;28;20413;-66
2022/08/27 00:40:47;;;;;;;0.97;0.97;;;18.40;99.90;;;;;;5033028;28;20254;-65
2022/08/27 00:43:13;;;;;;;1.13;1.03;;;18.50;99.90;;;;;;5032746;28;20444;-66
2022/08/27 00:45:42;;;;;;;1.17;1.00;;;18.50;99.90;;;;;;5032987;28;20453;-66
2022/08/27 00:48:11;;;;;;;1.47;1.10;;;18.50;99.90;;;;;;5032739;28;20481;-66
2022/08/27 00:50:40;;;;;;;2.30;1.70;;;18.50;99.90;;;;;;5035556;28;20398;-65
2022/08/27 00:53:29;;;;;;;1.47;1.37;;;18.60;99.90;;;;;;5036212;28;20433;-65
2022/08/27 00:55:59;;;;;;;2.27;2.07;;;18.60;99.90;;;;;;5036207;28;20492;-66
2022/08/27 00:58:27;;;;;;;2.10;1.07;;;18.70;99.90;;;;;;5036228;28;20397;-65
2022/08/27 01:00:53;;;;;;;1.83;1.37;;;18.80;99.90;;;;;;5036183;28;20475;-66
2022/08/27 01:03:20;;;;;;;1.30;1.20;;;18.70;99.90;;;;;;5036035;28;20452;-66
2022/08/27 01:05:47;;;;;;;1.40;1.30;;;18.70;99.90;;;;;;5035756;28;20541;-66
2022/08/27 01:08:18;;;;;;;1.13;1.10;;;18.60;99.90;;;;;;5035922;28;20404;-65
2022/08/27 01:10:45;;;;;;;2.07;1.97;;;18.60;99.90;;;;;;5036217;28;20394;-66
2022/08/27 01:13:14;;;;;;;2.23;2.03;;;18.60;99.90;;;;;;5034595;28;20954;-65
2022/08/27 01:15:41;;;;;;;1.37;1.07;;;18.60;99.90;;;;;;5036087;28;20418;-65
2022/08/27 01:18:08;;;;;;;1.67;1.57;;;18.70;99.90;;;;;;5035834;28;20492;-66
2022/08/27 01:21:00;;;;;;;0.80;0.80;;;18.60;99.90;;;;;;5035934;28;20401;-65
2022/08/27 01:23:38;;;;;;;1.00;1.00;;;18.50;99.90;;;;;;5035773;28;20783;-65
2022/08/27 01:26:07;;;;;;;2.00;1.90;;;18.50;99.90;;;;;;5034182;28;20973;-65
2022/08/27 01:28:35;;;;;;;1.87;1.77;;;18.60;99.90;;;;;;5035755;28;20401;-65
2022/08/27 01:31:06;;;;;;;1.00;1.00;;;18.60;99.90;;;;;;5035603;28;20441;-66
2022/08/27 01:33:32;;;;;;;1.23;1.10;;;18.50;99.90;;;;;;5035818;28;20875;-66
2022/08/27 01:35:58;;;;;;;0.87;0.87;;;18.60;99.90;;;;;;5035352;28;20468;-65
2022/08/27 01:38:26;;;;;;;2.00;1.33;;;18.60;99.90;;;;;;5035485;28;20602;-66
2022/08/27 01:40:52;;;;;;;2.50;1.53;;;18.50;99.90;;;;;;5035732;28;20902;-65
2022/08/27 01:43:18;;;;;;;1.27;1.17;;;18.40;99.90;;;;;;5035319;28;20945;-66
2022/08/27 01:45:48;;;;;;;1.47;1.07;;;18.40;99.90;;;;;;5035090;28;20445;-66
2022/08/27 01:48:14;;;;;;;0.70;0.70;;;18.40;99.90;;;;;;5035245;28;20806;-66
2022/08/27 01:50:40;;;;;;;1.20;1.20;;;18.30;99.90;;;;;;5035147;28;20411;-66
2022/08/27 01:53:15;;;;;;;1.43;1.07;;;18.30;99.90;;;;;;5035283;28;20477;-65
2022/08/27 01:55:42;;;;;;;0.57;0.57;;;18.30;99.90;;;;;;5035189;28;20409;-66
2022/08/27 01:58:08;;;;;;;0.90;0.90;;;18.20;99.90;;;;;;5035281;28;20402;-65
2022/08/27 02:00:37;;;;;;;0.90;0.90;;;18.30;99.90;;;;;;5035016;28;20936;-66
2022/08/27 02:03:04;;;;;;;0.70;0.70;;;18.40;99.90;;;;;;5035106;28;20187;-65
2022/08/27 02:05:31;;;;;;;0.80;0.80;;;18.40;99.90;;;;;;5034917;28;20455;-66
2022/08/27 02:07:57;;;;;;;1.47;1.37;;;18.40;99.90;;;;;;5034850;28;20406;-65
2022/08/27 02:10:31;;;;;;;1.50;1.10;;;18.40;99.90;;;;;;5034925;28;20942;-66
2022/08/27 02:12:57;;;;;;;1.37;1.27;;;18.30;99.90;;;;;;5034965;28;20421;-66
2022/08/27 02:15:23;;;;;;;0.97;0.97;;;18.20;99.90;;;;;;5034606;28;20429;-65
2022/08/27 02:17:51;;;;;;;2.20;1.33;;;18.30;99.90;;;;;;5034632;28;20174;-65
2022/08/27 02:20:18;;;;;;;0.93;0.93;;;18.20;99.90;;;;;;5034750;28;20766;-66
2022/08/27 02:22:44;;;;;;;1.83;1.73;;;18.20;99.90;;;;;;5034636;28;20429;-66
2022/08/27 02:25:12;;;;;;;4.20;1.20;;;18.20;99.90;;;;;;5034821;28;20404;-66
2022/08/27 02:27:40;;;;;;;0.83;0.83;;;18.20;99.90;;;;;;5034300;28;20445;-66
2022/08/27 02:30:09;;;;;;;1.20;1.00;;;18.20;99.90;;;;;;5034625;28;20955;-65
2022/08/27 02:32:35;;;;;;;2.00;1.90;;;18.20;99.90;;;;;;5034217;28;20532;-66
2022/08/27 02:35:02;;;;;;;0.93;0.93;;;18.20;99.90;;;;;;5034286;28;20440;-65
2022/08/27 02:37:29;;;;;;;0.90;0.90;;;18.10;99.90;;;;;;5034232;28;20163;-66
2022/08/27 02:39:58;;;;;;;1.23;1.13;;;18.10;99.90;;;;;;5034424;28;20398;-66
2022/08/27 02:42:24;;;;;;;1.43;1.07;;;18.10;99.90;;;;;;5034128;28;20777;-66
2022/08/27 02:44:49;;;;;;;2.33;2.10;;;18.00;99.90;;;;;;5034251;28;20401;-66
2022/08/27 02:47:16;;;;;;;0.70;0.70;;;18.00;99.90;;;;;;5033989;28;20499;-66
2022/08/27 02:49:43;;;;;;;0.70;0.70;;;18.00;99.90;;;;;;5034350;28;20170;-66
2022/08/27 02:52:09;;;;;;;3.13;1.47;;;17.90;99.90;;;;;;5033954;28;20425;-66
2022/08/27 02:54:35;;;;;;;2.90;1.60;;;17.80;99.90;;;;;;5034195;28;20519;-66
2022/08/27 02:57:01;;;;;;;0.97;0.97;;;17.70;99.90;;;;;;5033926;28;20909;-66
2022/08/27 02:59:28;;;;;;;1.50;1.40;;;17.80;99.90;;;;;;5033934;28;20174;-65
2022/08/27 03:01:54;;;;;;;1.37;1.27;;;17.80;99.90;;;;;;5033963;28;20190;-66
2022/08/27 03:04:21;;;;;;;1.90;1.07;;;17.90;99.90;;;;;;5034000;28;20872;-65
2022/08/27 03:06:47;;;;;;;1.00;1.00;;;17.80;99.90;;;;;;5033713;28;20602;-66
2022/08/27 03:09:13;;;;;;;1.70;1.60;;;17.80;99.90;;;;;;5033992;28;20433;-65
2022/08/27 03:11:39;;;;;;;1.60;1.47;;;17.80;99.90;;;;;;5033744;28;20663;-65
2022/08/27 03:14:06;;;;;;;0.90;0.90;;;17.80;99.90;;;;;;5033566;28;20825;-66
2022/08/27 03:16:34;;;;;;;0.90;0.90;;;17.80;99.90;;;;;;5033501;28;20976;-66
2022/08/27 03:19:00;;;;;;;1.00;1.00;;;17.70;99.90;;;;;;5033778;28;20768;-66
2022/08/27 03:21:27;;;;;;;0.97;0.93;;;17.60;99.90;;;;;;5032191;28;20437;-66
2022/08/27 03:23:52;;;;;;;2.67;2.50;;;17.60;99.90;;;;;;5032011;28;20988;-65
2022/08/27 03:26:19;;;;;;;0.83;0.80;;;17.70;99.90;;;;;;5033579;28;20544;-65
2022/08/27 03:28:45;;;;;;;1.43;1.33;;;17.70;99.90;;;;;;5033801;28;20202;-66
2022/08/27 03:31:25;;;;;;;1.00;1.00;;;17.70;99.90;;;;;;5033243;28;20932;-65
2022/08/27 03:33:56;;;;;;;1.80;1.00;;;17.60;99.90;;;;;;5033665;28;20894;-66
2022/08/27 03:36:22;;;;;;;0.63;0.63;;;17.60;99.90;;;;;;5033479;28;20422;-66
2022/08/27 03:38:47;;;;;;;0.87;0.87;;;17.60;99.90;;;;;;5033385;28;20398;-66
2022/08/27 03:41:16;;;;;;;1.03;1.00;;;17.70;99.90;;;;;;5033495;28;20820;-65
2022/08/27 03:43:42;;;;;;;0.97;0.80;;;17.60;99.90;;;;;;5033561;28;20540;-65
2022/08/27 03:46:08;;;;;;;0.83;0.83;;;17.60;99.90;;;;;;5033336;28;20453;-65
2022/08/27 03:48:34;;;;;;;0.60;0.60;;;17.50;99.90;;;;;;5033512;28;20642;-66
2022/08/27 03:51:09;;;;;;;1.00;1.00;;;17.60;99.90;;;;;;5033345;28;20398;-67
2022/08/27 03:53:36;;;;;;;0.67;0.67;;;17.70;99.90;;;;;;5033453;28;20169;-65
2022/08/27 03:56:03;;;;;;;1.90;1.43;;;17.70;99.90;;;;;;5032209;28;20467;-66
2022/08/27 03:58:29;;;;;;;1.00;0.97;;;17.60;99.90;;;;;;5033360;28;20808;-66
2022/08/27 04:00:55;;;;;;;0.97;0.97;;;17.60;99.90;;;;;;5033321;28;20397;-66
2022/08/27 04:03:21;;;;;;;0.77;0.77;;;17.60;99.90;;;;;;5033310;28;20202;-65
2022/08/27 04:14:19;;;;;;;1.63;1.53;;;17.50;99.90;;;;;;5013652;28;20774;-74
2022/08/27 04:16:46;;;;;;;0.40;0.40;;;17.50;99.90;;;;;;5013205;28;20442;-75
2022/08/27 04:19:13;;;;;;;1.17;0.90;;;17.50;99.90;;;;;;5013394;28;20406;-74
2022/08/27 04:21:39;;;;;;;0.97;0.97;;;17.50;99.90;;;;;;5013770;28;20499;-73
2022/08/27 04:24:05;;;;;;;1.40;0.83;;;17.60;99.90;;;;;;5014019;28;20416;-73
2022/08/27 04:26:31;;;;;;;1.00;0.80;;;17.50;99.90;;;;;;5017228;28;20836;-75
2022/08/27 04:28:58;;;;;;;0.80;0.80;;;17.50;99.90;;;;;;5017364;28;20411;-77
2022/08/27 04:31:24;;;;;;;0.60;0.50;;;17.40;99.90;;;;;;5017141;28;20168;-76
2022/08/27 04:33:52;;;;;;;0.40;0.40;;;17.50;99.90;;;;;;5017544;28;20746;-74
2022/08/27 04:36:18;;;;;;;0.90;0.90;;;17.50;99.90;;;;;;5016071;28;20958;-74
2022/08/27 04:38:44;;;;;;;0.70;0.70;;;17.50;99.90;;;;;;5016854;28;20468;-74
2022/08/27 04:41:25;;;;;;;0.60;0.60;;;17.50;99.90;;;;;;5015539;28;20477;-76
2022/08/27 04:44:03;;;;;;;0.50;0.50;;;17.50;99.90;;;;;;5015821;28;20927;-74
2022/08/27 04:46:32;;;;;;;0.60;0.60;;;17.40;99.90;;;;;;5017154;28;20508;-76
2022/08/27 04:49:01;;;;;;;0.70;0.70;;;17.40;99.90;;;;;;5017304;28;20464;-76
2022/08/27 04:51:28;;;;;;;0.50;0.50;;;17.40;99.90;;;;;;5016632;28;20422;-77
2022/08/27 04:53:55;;;;;;;0.80;0.60;;;17.40;99.90;;;;;;5016916;28;20411;-78
2022/08/27 04:56:22;;;;;;;0.30;0.30;;;17.40;99.90;;;;;;5016779;28;20485;-79
2022/08/27 04:58:49;;;;;;;1.00;0.83;;;17.40;99.90;;;;;;5016938;28;20438;-74
2022/08/27 05:01:17;;;;;;;0.50;0.50;;;17.40;99.90;;;;;;5016256;28;20418;-82
2022/08/27 05:03:44;;;;;;;0.40;0.40;;;17.50;99.90;;;;;;5015086;28;21009;-79
2022/08/27 05:06:11;;;;;;;1.27;1.17;;;17.60;99.90;;;;;;5015141;28;20453;-77
2022/08/27 05:08:36;;;;;;;0.40;0.40;;;17.70;99.90;;;;;;5014875;28;20422;-75
2022/08/27 05:11:09;;;;;;;0.90;0.90;;;17.70;99.90;;;;;;5016632;28;20410;-72
2022/08/27 05:13:38;;;;;;;0.57;0.57;;;17.70;99.90;;;;;;5018485;28;20917;-75
2022/08/27 05:16:07;;;;;;;0.50;0.50;;;17.70;99.90;;;;;;5016019;28;20952;-77
2022/08/27 05:18:34;;;;;;;1.33;0.50;;;17.70;99.90;;;;;;5016823;28;20929;-76
2022/08/27 05:21:00;;;;;;;0.30;0.30;;;17.80;99.90;;;;;;5015943;28;20458;-78
2022/08/27 05:23:27;;;;;;;0.50;0.50;;;17.90;99.90;;;;;;5016412;28;20422;-78
2022/08/27 05:25:53;;;;;;;1.00;1.00;;;17.90;99.90;;;;;;5016288;28;20458;-77
2022/08/27 05:28:21;;;;;;;0.40;0.40;;;17.90;99.90;;;;;;5016028;28;20411;-77
2022/08/27 05:30:50;;;;;;;0.70;0.50;;;17.90;99.90;;;;;;5015991;28;20789;-78
2022/08/27 05:33:19;;;;;;;0.50;0.40;;;17.90;99.90;;;;;;5015881;28;20410;-76
2022/08/27 05:35:55;;;;;;;1.43;1.33;;;17.90;99.90;;;;;;5015456;28;20460;-78
2022/08/27 05:38:26;;;;;;;0.30;0.30;;;17.90;99.90;;;;;;5016179;28;20449;-76
2022/08/27 05:41:13;;;;;;;0.60;0.60;;;18.00;99.90;;;;;;5015574;28;20808;-73
2022/08/27 05:43:40;;;;;;;1.13;0.70;;;18.00;99.90;;;;;;5015804;28;20717;-78
2022/08/27 05:46:12;;;;;;;0.40;0.40;;;18.10;99.90;;;;;;5015437;28;20454;-76
2022/08/27 05:48:38;;;;;;;0.50;0.50;;;18.10;99.90;;;;;;5015945;28;20797;-77
2022/08/27 05:51:20;;;;;;;0.40;0.30;;;18.10;99.90;;;;;;5015262;28;20410;-73
2022/08/27 05:53:46;;;;;;;0.97;0.80;;;18.20;99.90;;;;;;5015529;28;20501;-78
2022/08/27 05:56:18;;;;;;;0.67;0.40;;;18.30;99.90;;;;;;5015843;28;20961;-78
2022/08/27 06:01:31;;;;;;;0.60;0.60;;;18.40;99.90;;;;;;5014597;28;20425;-79
2022/08/27 06:03:57;;;;;;;0.40;0.40;;;18.40;99.90;;;;;;5014081;28;20849;-80
2022/08/27 06:06:23;;;;;;;0.83;0.50;;;18.40;99.90;;;;;;5012595;28;20970;-80
2022/08/27 06:08:50;;;;;;;0.30;0.30;;;18.40;99.90;;;;;;5015185;28;20410;-80
2022/08/27 06:11:18;;;;;;;0.50;0.50;;;18.40;99.90;;;;;;5015293;28;20923;-81
2022/08/27 06:13:44;;;;;;;0.60;0.50;;;18.50;99.90;;;;;;5015377;28;20417;-79
2022/08/27 06:16:13;;;;;;;0.40;0.40;;;18.50;99.90;;;;;;5015373;28;20450;-76
2022/08/27 06:18:39;;;;;;;0.40;0.40;;;18.60;99.90;;;;;;5015264;28;20505;-79
2022/08/27 06:21:05;;;;;;;0.30;0.30;;;18.70;99.90;;;;;;5015028;28;20420;-79
2022/08/27 06:23:32;;;;;;;0.60;0.53;;;18.80;99.90;;;;;;5015081;28;20412;-80
2022/08/27 06:25:58;;;;;;;0.40;0.40;;;18.80;99.90;;;;;;5015102;28;20825;-81
2022/08/27 06:28:30;;;;;;;0.40;0.40;;;18.90;99.90;;;;;;5015081;28;20501;-77
2022/08/27 06:31:10;;;;;;;0.50;0.50;;;19.00;99.90;;;;;;5014896;28;20392;-80
2022/08/27 06:33:37;;;;;;;0.43;0.43;;;19.10;99.90;;;;;;5015077;28;20392;-82
2022/08/27 06:36:05;;;;;;;0.50;0.50;;;19.20;99.90;;;;;;5014592;28;20447;-76
2022/08/27 06:38:32;;;;;;;0.40;0.40;;;19.30;99.90;;;;;;5015021;28;20416;-79
2022/08/27 06:40:58;;;;;;;0.60;0.60;;;19.40;99.90;;;;;;5014381;28;20421;-80
2022/08/27 06:43:25;;;;;;;0.30;0.30;;;19.50;99.90;;;;;;5015153;28;20769;-77
2022/08/27 06:45:52;;;;;;;0.40;0.30;;;19.60;99.90;;;;;;5015089;28;20292;-81
2022/08/27 06:48:18;;;;;;;0.70;0.70;;;19.70;99.90;;;;;;5013792;28;20736;-78
2022/08/27 06:50:44;;;;;;;0.50;0.50;;;19.80;99.90;;;;;;5014330;28;20558;-80
2022/08/27 06:53:10;;;;;;;0.40;0.40;;;19.90;99.90;;;;;;5014751;28;20409;-77
2022/08/27 06:55:45;;;;;;;0.30;0.30;;;19.90;99.90;;;;;;5014370;28;20438;-80
2022/08/27 06:58:15;;;;;;;0.37;0.37;;;20.00;99.90;;;;;;5014077;28;20845;-80
2022/08/27 07:00:41;;;;;;;0.30;0.30;;;20.10;99.90;;;;;;5012887;28;20974;-78
2022/08/27 07:03:07;;;;;;;0.30;0.30;;;20.10;99.90;;;;;;5012961;28;20410;-77
2022/08/27 07:05:35;;;;;;;0.47;0.47;;;20.20;99.90;;;;;;5024820;28;20763;-79
2022/08/27 07:08:02;;;;;;;0.50;0.50;;;20.30;99.90;;;;;;5014259;28;20779;-82
2022/08/27 07:10:28;;;;;;;0.60;0.60;;;20.30;99.90;;;;;;5013728;28;20416;-80
2022/08/27 07:12:54;;;;;;;0.40;0.40;;;20.50;99.90;;;;;;5014262;28;20399;-79
2022/08/27 07:15:20;;;;;;;0.40;0.40;;;20.50;99.90;;;;;;5014301;28;20442;-80
2022/08/27 07:17:46;;;;;;;0.40;0.40;;;20.60;99.90;;;;;;5014234;28;20190;-81
2022/08/27 07:20:13;;;;;;;0.30;0.30;;;20.70;99.90;;;;;;5013998;28;20418;-80
2022/08/27 07:22:43;;;;;;;0.30;0.30;;;20.70;99.90;;;;;;5014106;28;20175;-79
2022/08/27 07:25:13;;;;;;;0.40;0.40;;;20.80;99.90;;;;;;5013712;28;20438;-78
2022/08/27 07:27:39;;;;;;;0.30;0.30;;;20.90;99.90;;;;;;5013612;28;20465;-81
2022/08/27 07:30:08;;;;;;;0.40;0.40;;;20.90;99.90;;;;;;5012707;28;20502;-78
2022/08/27 07:32:34;;;;;;;1.07;1.07;;;20.90;99.90;;;;;;5013683;28;20498;-81
2022/08/27 07:34:59;;;;;;;0.30;0.30;;;20.90;99.90;;;;;;5012530;28;20522;-80
2022/08/27 07:37:25;;;;;;;0.30;0.30;;;20.90;99.90;;;;;;5012565;28;20625;-80
2022/08/27 07:39:51;;;;;;;0.70;0.70;;;20.90;99.90;;;;;;5014055;28;20181;-80
2022/08/27 07:45:01;;;;;;;0.50;0.50;;;21.10;99.80;;;;;;5013565;28;20202;-81
2022/08/27 07:47:26;;;;;;;0.50;0.50;;;21.10;99.90;;;;;;5013204;28;20456;-79
2022/08/27 07:49:52;;;;;;;0.67;0.53;;;21.20;99.90;;;;;;5012357;28;20284;-79
2022/08/27 07:52:18;;;;;;;0.30;0.30;;;21.40;99.90;;;;;;5013821;28;20271;-78
2022/08/27 07:54:44;;;;;;;0.43;0.43;;;21.50;99.90;;;;;;5013704;28;20195;-79
2022/08/27 07:57:10;;;;;;;0.40;0.40;;;21.60;99.90;;;;;;5014008;28;20169;-81
2022/08/27 07:59:36;;;;;;;0.73;0.40;;;21.80;99.90;;;;;;5016214;28;20177;-81
2022/08/27 08:02:01;;;;;;;0.60;0.47;;;22.00;99.90;;;;;;5017671;28;20456;-78
2022/08/27 08:04:27;;;;;;;1.00;0.53;;;22.30;99.90;;;;;;5017552;28;20183;-82
2022/08/27 08:06:54;;;;;;;0.50;0.50;;;22.60;99.90;;;;;;5017219;28;20207;-79
2022/08/27 08:09:22;;;;;;;0.30;0.30;;;22.90;99.10;;;;;;5018110;28;20389;-82
2022/08/27 08:11:49;;;;;;;0.90;0.40;;;23.20;98.50;;;;;;5017512;28;20494;-81
2022/08/27 08:14:15;;;;;;;0.40;0.40;;;23.40;97.90;;;;;;5017629;28;20406;-81
2022/08/27 08:16:40;;;;;;;0.60;0.50;;;23.60;98.10;;;;;;5016320;28;20795;-80
2022/08/27 08:19:07;;;;;;;0.63;0.40;;;23.70;98.50;;;;;;5017663;28;20419;-77
2022/08/27 08:21:34;;;;;;;0.60;0.60;;;23.80;97.10;;;;;;5017240;28;20221;-80
2022/08/27 08:24:01;;;;;;;0.60;0.50;;;24.00;97.00;;;;;;5016972;28;20541;-78
2022/08/27 08:26:27;;;;;;;0.50;0.50;;;24.20;96.60;;;;;;5016993;28;20431;-80
2022/08/27 08:28:53;;;;;;;0.30;0.30;;;24.30;95.90;;;;;;5017201;28;20418;-78
2022/08/27 08:31:19;;;;;;;0.50;0.50;;;24.60;95.70;;;;;;5016489;28;20485;-80
2022/08/27 08:33:47;;;;;;;0.40;0.40;;;24.90;94.10;;;;;;5016499;28;20212;-82
2022/08/27 08:36:15;;;;;;;0.40;0.40;;;25.10;93.90;;;;;;5015846;28;20426;-80
2022/08/27 08:38:41;;;;;;;0.40;0.40;;;25.20;94.40;;;;;;5015478;28;20817;-80
2022/08/27 08:41:49;;;;;;;0.50;0.50;;;25.40;95.10;;;;;;5015039;28;20410;-78
2022/08/27 08:44:35;;;;;;;0.50;0.50;;;25.50;93.20;;;;;;5012923;28;20825;-78
2022/08/27 08:47:03;;;;;;;0.80;0.80;;;25.50;93.50;;;;;;5017157;28;20846;-83
2022/08/27 08:49:54;;;;;;;0.57;0.57;;;25.50;94.40;;;;;;5016762;28;20934;-83
2022/08/27 08:52:28;;;;;;;0.60;0.60;;;25.30;93.10;;;;;;5016952;28;20478;-83
2022/08/27 08:55:13;;;;;;;0.40;0.40;;;25.20;95.20;;;;;;5014721;28;20409;-83
2022/08/27 08:57:53;;;;;;;0.57;0.57;;;25.10;93.40;;;;;;5017320;28;20377;-75
2022/08/27 09:00:19;;;;;;;0.50;0.50;;;24.90;93.90;;;;;;5024769;28;20891;-80
2022/08/27 09:02:53;;;;;;;0.30;0.30;;;24.80;94.20;;;;;;5017095;28;20383;-80
2022/08/27 09:05:20;;;;;;;0.60;0.57;;;24.70;93.70;;;;;;5016680;28;20793;-83
2022/08/27 09:08:12;;;;;;;1.10;0.63;;;24.90;93.80;;;;;;5016351;28;20915;-78
2022/08/27 09:10:43;;;;;;;0.60;0.40;;;25.10;95.00;;;;;;5014767;28;20414;-79
2022/08/27 09:13:33;;;;;;;0.50;0.40;;;25.00;94.40;;;;;;5015652;28;20496;-79
2022/08/27 09:16:02;;;;;;;0.67;0.67;;;24.90;94.00;;;;;;5015530;28;20455;-80
2022/08/27 09:18:29;;;;;;;0.43;0.43;;;24.70;93.10;;;;;;5015772;28;20447;-78
2022/08/27 09:21:06;;;;;;;0.40;0.40;;;24.60;95.40;;;;;;5015653;28;20388;-77
2022/08/27 09:23:38;;;;;;;0.60;0.60;;;24.70;94.40;;;;;;5016481;28;20386;-80
2022/08/27 09:26:04;;;;;;;0.40;0.40;;;24.90;93.60;;;;;;5015966;28;20432;-79
2022/08/27 09:31:17;;;;;;;0.50;0.50;;;24.80;94.00;;;;;;5016102;28;20667;-82
2022/08/27 09:33:43;;;;;;;0.43;0.40;;;24.80;94.10;;;;;;5015917;28;20387;-79
2022/08/27 09:36:13;;;;;;;0.80;0.77;;;24.70;94.40;;;;;;5015548;28;20825;-81
2022/08/27 09:38:51;;;;;;;0.77;0.70;;;24.70;94.60;;;;;;5015771;28;20179;-79
2022/08/27 09:41:22;;;;;;;0.93;0.70;;;24.50;93.80;;;;;;5015769;28;20381;-80
2022/08/27 09:44:06;;;;;;;0.40;0.40;;;24.30;94.10;;;;;;5015410;28;20900;-83
2022/08/27 09:46:32;;;;;;;0.40;0.40;;;24.00;95.00;;;;;;5015697;28;20462;-79
2022/08/27 09:49:18;;;;;;;0.50;0.50;;;23.70;95.50;;;;;;5015428;28;20437;-80
2022/08/27 09:51:46;;;;;;;0.40;0.40;;;23.40;96.10;;;;;;5015412;28;20176;-79
2022/08/27 09:54:43;;;;;;;0.97;0.97;;;22.90;96.90;;;;;;5015549;28;20721;-81
2022/08/27 09:57:11;;;;;;;0.40;0.40;;;22.60;98.20;;;;;;5015437;28;20446;-77
2022/08/27 09:59:42;;;;;;;0.47;0.47;;;22.50;98.20;;;;;;5015431;28;20519;-81
2022/08/27 10:02:22;;;;;;;0.90;0.63;;;22.40;98.20;;;;;;5015692;28;20924;-81
2022/08/27 10:04:54;;;;;;;1.03;0.93;;;22.30;98.80;;;;;;5015269;28;20405;-79
2022/08/27 10:07:42;;;;;;;0.70;0.70;;;22.20;99.50;;;;;;5015167;28;20464;-80
2022/08/27 10:10:19;;;;;;;0.70;0.70;;;22.30;99.70;;;;;;5015094;28;20504;-78
2022/08/27 10:13:29;;;;;;;0.90;0.80;;;22.20;99.20;;;;;;5015307;28;20504;-79
2022/08/27 10:16:19;;;;;;;1.13;0.80;;;22.10;99.60;;;;;;4971313;28;20452;-81
2022/08/27 10:18:54;;;;;;;0.60;0.60;;;21.90;99.90;;;;;;5015250;28;20409;-78
2022/08/27 10:21:40;;;;;;;0.60;0.60;;;21.80;99.90;;;;;;5014943;28;20408;-82
2022/08/27 10:24:24;;;;;;;0.63;0.63;;;21.70;99.90;;;;;;5015075;28;20958;-80
2022/08/27 10:27:20;;;;;;;0.50;0.50;;;21.50;99.90;;;;;;5014902;28;20859;-78
2022/08/27 10:30:08;;;;;;;0.60;0.60;;;21.40;99.90;;;;;;5015038;28;20408;-79
2022/08/27 10:32:49;;;;;;;0.80;0.60;;;21.20;99.90;;;;;;5014910;28;20416;-81
2022/08/27 10:35:24;;;;;;;1.33;1.23;;;21.20;99.90;;;;;;5014675;28;20435;-79
2022/08/27 10:37:57;;;;;;;0.97;0.90;;;21.20;99.90;;;;;;5014824;28;20418;-78
2022/08/27 10:40:46;;;;;;;0.90;0.90;;;21.10;99.90;;;;;;5014544;28;20392;-79
2022/08/27 10:43:22;;;;;;;1.57;1.47;;;21.20;99.90;;;;;;5014764;28;20445;-79
2022/08/27 10:46:22;;;;;;;1.27;0.87;;;21.30;99.90;;;;;;5014718;28;20519;-81
2022/08/27 10:49:00;;;;;;;0.53;0.53;;;21.40;99.90;;;;;;5014628;28;20436;-80
2022/08/27 10:51:34;;;;;;;1.47;1.00;;;21.60;99.90;;;;;;5025596;28;20432;-80
2022/08/27 10:54:00;;;;;;;0.80;0.80;;;21.70;99.90;;;;;;5012686;28;20420;-78
2022/08/27 10:56:42;;;;;;;1.10;0.87;;;21.60;99.90;;;;;;5013359;28;20438;-77
2022/08/27 10:59:37;;;;;;;0.80;0.40;;;21.50;99.90;;;;;;5013835;28;20173;-80
2022/08/27 11:02:14;;;;;;;1.60;1.50;;;21.20;99.90;;;;;;5012855;28;20437;-78
2022/08/27 11:04:47;;;;;;;1.13;1.03;;;21.20;99.90;;;;;;5013624;28;20865;-78
2022/08/27 11:07:31;;;;;;;1.20;0.67;;;21.10;99.90;;;;;;5013830;28;20459;-79
2022/08/27 11:10:01;;;;;;;0.60;0.60;;;21.10;99.90;;;;;;5014160;28;20421;-82
2022/08/27 11:12:33;;;;;;;0.77;0.77;;;21.20;99.90;;;;;;5014145;28;20407;-82
2022/08/27 11:15:21;;;;;;;0.60;0.60;;;21.00;99.90;;;;;;5014137;28;20460;-78
2022/08/27 11:18:07;;;;;;;0.67;0.67;;;20.80;99.90;;;;;;5014598;28;20819;-78
2022/08/27 11:20:52;;;;;;;0.70;0.70;;;20.60;99.90;;;;;;5013905;28;20431;-76
2022/08/27 11:23:26;;;;;;;0.97;0.97;;;20.60;99.90;;;;;;5014106;28;20916;-82
2022/08/27 11:25:55;;;;;;;0.50;0.50;;;20.70;99.90;;;;;;5013841;28;20431;-76
2022/08/27 11:28:28;;;;;;;0.50;0.50;;;20.80;99.90;;;;;;5013917;28;20422;-77
2022/08/27 11:31:03;;;;;;;0.77;0.60;;;20.90;99.90;;;;;;5013905;28;20765;-80
2022/08/27 11:33:50;;;;;;;0.50;0.50;;;21.00;99.90;;;;;;5013789;28;20399;-82
2022/08/27 11:36:38;;;;;;;0.60;0.60;;;21.00;99.90;;;;;;5013744;28;20424;-76
2022/08/27 11:39:35;;;;;;;0.50;0.50;;;21.00;99.90;;;;;;5014069;28;20450;-80
2022/08/27 11:42:26;;;;;;;0.90;0.80;;;21.00;99.90;;;;;;5013805;28;20431;-79
2022/08/27 11:45:02;;;;;;;0.53;0.53;;;21.10;99.90;;;;;;5014057;28;20435;-81
2022/08/27 11:47:28;;;;;;;1.13;1.13;;;21.20;99.90;;;;;;5013732;28;20471;-81
2022/08/27 11:49:56;;;;;;;0.80;0.80;;;21.30;99.90;;;;;;5013608;28;20951;-77
2022/08/27 11:52:31;;;;;;;1.30;1.00;;;21.30;99.90;;;;;;5013621;28;20402;-79
2022/08/27 11:55:15;;;;;;;0.73;0.60;;;21.30;99.90;;;;;;5013779;28;20518;-77
2022/08/27 11:57:41;;;;;;;1.03;0.93;;;21.30;99.90;;;;;;5013620;28;20480;-81
2022/08/27 12:00:16;;;;;;;0.53;0.53;;;21.20;99.90;;;;;;5013584;28;20422;-77
2022/08/27 12:02:43;;;;;;;1.50;1.03;;;21.20;99.90;;;;;;5013972;28;20403;-82
2022/08/27 12:05:22;;;;;;;1.37;0.90;;;21.10;99.90;;;;;;5013496;28;20529;-79
2022/08/27 12:07:50;;;;;;;1.70;1.60;;;20.90;99.90;;;;;;5013735;28;20445;-79
2022/08/27 12:10:22;;;;;;;0.93;0.87;;;20.80;99.90;;;;;;5013425;28;20411;-80
2022/08/27 12:13:21;;;;;;;0.93;0.93;;;20.70;99.90;;;;;;5013572;28;20475;-80
2022/08/27 12:15:50;;;;;;;0.40;0.40;;;20.60;99.90;;;;;;5007811;28;20505;-80
2022/08/27 12:18:22;;;;;;;0.80;0.80;;;20.50;99.90;;;;;;5013549;28;20481;-80
2022/08/27 12:21:02;;;;;;;1.37;1.27;;;20.40;99.90;;;;;;5013291;28;20415;-81
2022/08/27 12:23:39;;;;;;;0.93;0.60;;;20.40;99.90;;;;;;5013609;28;20432;-80
2022/08/27 12:26:26;;;;;;;0.97;0.87;;;20.50;99.90;;;;;;5013491;28;20458;-81
2022/08/27 12:29:27;;;;;;;0.90;0.40;;;20.60;99.90;;;;;;5013513;28;20438;-81
2022/08/27 12:32:08;;;;;;;0.87;0.87;;;20.70;99.90;;;;;;5012199;28;20494;-80
2022/08/27 12:35:08;;;;;;;1.47;0.80;;;20.70;99.90;;;;;;5013320;28;20419;-80
2022/08/27 12:37:37;;;;;;;1.10;1.00;;;20.90;99.90;;;;;;5009378;28;20424;-81
2022/08/27 12:40:15;;;;;;;0.83;0.67;;;21.00;99.90;;;;;;5013167;28;20489;-81
2022/08/27 12:42:41;;;;;;;1.13;1.13;;;21.20;99.90;;;;;;5018585;28;20415;-77
2022/08/27 12:45:07;;;;;;;1.03;0.70;;;21.40;99.90;;;;;;5021445;28;20826;-83
2022/08/27 12:47:40;;;;;;;0.60;0.60;;;21.60;99.90;;;;;;5017497;28;20210;-82
2022/08/27 12:50:06;;;;;;;1.90;0.80;;;21.80;99.90;;;;;;5015505;28;20512;-84
2022/08/27 12:53:07;;;;;;;0.60;0.60;;;21.80;99.90;;;;;;5017086;28;20461;-81
2022/08/27 12:55:58;;;;;;;1.37;0.60;;;22.00;99.90;;;;;;5016737;28;20439;-81
2022/08/27 12:58:37;;;;;;;1.13;1.03;;;22.20;99.90;;;;;;5016476;28;20413;-81
2022/08/27 13:01:24;;;;;;;0.70;0.70;;;22.70;99.90;;;;;;5016416;28;20409;-79
2022/08/27 13:03:53;;;;;;;1.83;1.03;;;23.00;99.90;;;;;;5016013;28;20764;-78
2022/08/27 13:06:18;;;;;;;0.70;0.70;;;23.40;99.90;;;;;;5015742;28;20477;-81
2022/08/27 13:08:44;;;;;;;1.17;1.10;;;23.70;99.90;;;;;;5016279;28;20411;-79
2022/08/27 13:11:23;;;;;;;1.07;0.90;;;23.80;97.90;;;;;;5015856;28;20164;-80
2022/08/27 13:13:51;;;;;;;0.63;0.63;;;24.00;99.30;;;;;;5016032;28;20225;-81
2022/08/27 13:16:18;;;;;;;0.80;0.80;;;24.00;99.90;;;;;;5014836;28;20968;-82
2022/08/27 13:18:50;;;;;;;0.90;0.90;;;24.00;99.50;;;;;;5016285;28;20416;-81
2022/08/27 13:21:26;;;;;;;1.07;1.00;;;24.00;99.90;;;;;;5016214;28;20854;-83
2022/08/27 13:23:58;;;;;;;0.40;0.40;;;24.00;99.90;;;;;;5016334;28;20476;-81
2022/08/27 13:26:28;;;;;;;0.87;0.80;;;23.80;99.90;;;;;;5015926;28;20454;-81